Cold Spring, MN (56320)

2:43 AM CDT on September 02, 2015 (GMT -0500)
Century Estates | | Change Station
CLOSE
Current Station
Personal Weather Station
Location: Cold Spring, MN
Elevation: 1165 ft
Nearby Weather Stations

Elev 1165 ft 45.44 °N, 94.43 °W | Updated 2 minutes ago

Overcast
Overcast
73.4 °F
Feels Like 73.4 °F
N
0.0
Wind Variable Wind from SSW
Gusts 1.0 mph

Today
High -- | Low -- °F
--% Chance of Precip.
Yesterday
High -- | Low -- °F
Precip. -- in
6:40 AM 7:53 PM
Waning Gibbous, 82% visible
Pressure 29.91 in
Visibility 10.0 miles
Clouds Clear
Dew Point 72 °F
Humidity 97%
Rainfall 0.04 in
Snow Depth Not available.
UV 0 out of 12
Pollen 9.80 out of 12
Air Quality Not available.
Flu Activity Not available.
METAR KPEX 020734Z AUTO 13006KT 10SM CLR 22/21 A2991 RMK AO2 LTG DSNT E AND SE T02220213
Pressure 29.91 in
Visibility 10.0 miles
Clouds Clear
Dew Point 72 °F
Humidity 97%
Rainfall 0.04 in
Snow Depth Not available.
UV 0 out of 12
Pollen 9.80 out of 12
Air Quality Not available.
Flu Activity Not available.
METAR KPEX 020734Z AUTO 13006KT 10SM CLR 22/21 A2991 RMK AO2 LTG DSNT E AND SE T02220213

10-Day Weather Forecast

×

Almanac

Astronomy

Sep. 02, 2015 Rise Set
Actual Time
Civil Twilight
Nautical Twilight
Astronomical Twilight
Moon
Length of Visible Light
Length of Day
Tomorrow will be .
, % of the Moon is Illuminated

Today's Extremes

State Highs State Lows

Community

WunderPhotos

Upload Photos

1,851,723 photos uploaded!

WunderBlogs® & News

Nearby

Air Quality

  Air Quality AQ Index Pollutant
Not available.

Snow Depth

Station Depth Elevation

Earthquake Activity

City Distance Mag. Time & Date
Minimum magnitude displayed is 2.5.

Coastal Water Temperatures

Place Temperature

Stations

Nearby Weather Stations

Station Location Temp. Windchill Dew Point Humidity Wind Precip. Elev Updated Type